Time;durP1;ratioP1;P1;durP2;ratioP2;P2;SDS_P1;SDS_P2;PMS_P1;PMS_P2;Temp;Humidity;BMP_temperature;BMP_pressure;BME280_temperature;BME280_humidity;BME280_pressure;Samples;Min_cycle;Max_cycle;Signal;HPM_P1;HPM_P2
2023/02/04 00:00:55;;;;;;;20.92;6.03;;;13.20;95.90;;;;;;7364316;19;20398;-86
2023/02/04 00:03:24;;;;;;;16.15;5.80;;;13.20;95.80;;;;;;7369135;19;20023;-85
2023/02/04 00:05:53;;;;;;;17.67;5.75;;;13.20;95.90;;;;;;7395206;19;20387;-84
2023/02/04 00:08:21;;;;;;;15.57;5.03;;;13.20;95.90;;;;;;7374105;19;20438;-84
2023/02/04 00:10:53;;;;;;;13.35;5.57;;;13.20;95.80;;;;;;7374315;19;20018;-85
2023/02/04 00:13:21;;;;;;;;;;;13.20;95.80;;;;;;7373801;19;20019;-85
2023/02/04 00:15:50;;;;;;;15.88;5.15;;;13.30;95.80;;;;;;7369493;19;20026;-85
2023/02/04 00:18:19;;;;;;;11.20;5.35;;;13.30;95.60;;;;;;7399430;19;20023;-84
2023/02/04 00:20:47;;;;;;;15.00;5.75;;;13.30;95.70;;;;;;7399664;19;20059;-85
2023/02/04 00:23:16;;;;;;;18.05;5.88;;;13.20;95.80;;;;;;7379236;19;20025;-86
2023/02/04 00:25:45;;;;;;;12.05;5.60;;;13.10;95.90;;;;;;7377244;19;20368;-85
2023/02/04 00:28:16;;;;;;;12.77;5.18;;;13.10;96.00;;;;;;7391907;19;20007;-85
2023/02/04 00:30:46;;;;;;;11.82;5.53;;;13.10;96.00;;;;;;7390127;19;20382;-85
2023/02/04 00:33:15;;;;;;;11.38;4.90;;;13.20;96.10;;;;;;7397685;19;20101;-86
2023/02/04 00:35:43;;;;;;;23.08;6.05;;;13.10;96.00;;;;;;7371595;19;20023;-86
2023/02/04 00:38:12;;;;;;;15.82;5.63;;;13.10;96.20;;;;;;7374493;19;20015;-86
2023/02/04 00:40:41;;;;;;;18.35;6.15;;;13.10;96.20;;;;;;7374496;19;20091;-86
2023/02/04 00:43:10;;;;;;;15.43;5.88;;;13.10;96.20;;;;;;7378986;19;20021;-86
2023/02/04 00:45:41;;;;;;;17.42;5.43;;;13.10;96.20;;;;;;7386638;19;20535;-85
2023/02/04 00:48:10;;;;;;;15.23;5.93;;;13.10;96.10;;;;;;7396464;19;20062;-86
2023/02/04 00:50:38;;;;;;;12.40;5.70;;;13.20;96.50;;;;;;7371806;19;20018;-86
2023/02/04 00:53:07;;;;;;;18.08;5.93;;;13.20;96.10;;;;;;7371074;19;20033;-85
2023/02/04 00:55:36;;;;;;;17.25;6.03;;;13.20;96.10;;;;;;7372382;19;20022;-85
2023/02/04 00:58:05;;;;;;;15.20;6.57;;;13.10;96.00;;;;;;7368143;19;20419;-86
2023/02/04 01:00:34;;;;;;;18.83;6.22;;;13.10;96.20;;;;;;7367621;19;20025;-85
2023/02/04 01:03:05;;;;;;;17.63;6.22;;;13.10;96.20;;;;;;7390337;19;20041;-85
2023/02/04 01:05:33;;;;;;;;;;;13.10;96.30;;;;;;7372251;19;20599;-84
2023/02/04 01:08:02;;;;;;;14.48;6.35;;;13.20;96.30;;;;;;7377239;19;19953;-85
2023/02/04 01:10:31;;;;;;;19.48;6.60;;;13.10;96.20;;;;;;7379595;19;20035;-86
2023/02/04 01:13:00;;;;;;;17.38;6.32;;;13.10;96.20;;;;;;7375574;19;20109;-86
2023/02/04 01:15:29;;;;;;;19.65;6.60;;;13.20;96.20;;;;;;7372524;19;20042;-86
2023/02/04 01:17:57;;;;;;;20.95;7.55;;;13.20;96.30;;;;;;7394942;19;20118;-87
2023/02/04 01:20:29;;;;;;;15.88;7.25;;;13.10;96.30;;;;;;7374263;19;20059;-86
2023/02/04 01:22:58;;;;;;;12.77;7.22;;;13.10;96.30;;;;;;7385022;19;20484;-86
2023/02/04 01:25:27;;;;;;;22.17;8.32;;;13.20;96.30;;;;;;7386146;19;20026;-87
2023/02/04 01:27:56;;;;;;;27.00;8.85;;;13.10;96.40;;;;;;7382338;19;20044;-87
2023/02/04 01:30:24;;;;;;;24.17;9.18;;;13.10;96.50;;;;;;7377001;19;20400;-85
2023/02/04 01:32:53;;;;;;;25.45;9.15;;;13.00;96.60;;;;;;7396154;19;20394;-87
2023/02/04 01:35:22;;;;;;;31.40;10.82;;;13.00;96.70;;;;;;7375814;19;20098;-85
2023/02/04 01:37:53;;;;;;;24.67;10.20;;;12.90;96.90;;;;;;7388483;19;20131;-86
2023/02/04 01:40:22;;;;;;;23.95;10.80;;;12.80;97.20;;;;;;7380572;19;20094;-86
2023/02/04 01:42:51;;;;;;;39.03;11.50;;;12.80;97.30;;;;;;7380860;19;20410;-86
2023/02/04 01:45:20;;;;;;;35.75;11.93;;;12.70;97.70;;;;;;7387874;19;20078;-85
2023/02/04 01:47:49;;;;;;;34.03;11.00;;;12.50;97.80;;;;;;7401891;19;20102;-87
2023/02/04 01:50:19;;;;;;;30.95;12.07;;;12.70;97.60;;;;;;7380120;19;20114;-86
2023/02/04 01:52:48;;;;;;;24.48;11.18;;;12.50;97.90;;;;;;7379950;19;20044;-86
2023/02/04 01:55:23;;;;;;;30.92;10.95;;;12.60;97.90;;;;;;7387809;19;20518;-86
2023/02/04 01:57:54;;;;;;;25.25;11.05;;;12.60;97.90;;;;;;7394982;19;20040;-86
2023/02/04 02:00:27;;;;;;;18.90;10.63;;;12.80;97.80;;;;;;7393666;19;20019;-85
2023/02/04 02:02:57;;;;;;;26.15;10.77;;;12.80;97.60;;;;;;7415729;19;20018;-86
2023/02/04 02:05:29;;;;;;;23.90;10.70;;;12.90;97.50;;;;;;7402137;19;20072;-86
2023/02/04 02:08:00;;;;;;;26.15;11.98;;;12.80;97.60;;;;;;7401596;19;20831;-86
2023/02/04 02:10:31;;;;;;;29.80;11.35;;;12.80;97.50;;;;;;7403415;19;20014;-86
2023/02/04 02:13:00;;;;;;;30.15;11.70;;;12.90;97.50;;;;;;7402163;19;20014;-86
2023/02/04 02:15:30;;;;;;;32.92;12.18;;;12.90;97.40;;;;;;7403276;19;20529;-86
2023/02/04 02:17:58;;;;;;;26.73;12.20;;;12.90;97.50;;;;;;7422326;19;20017;-86
2023/02/04 02:20:28;;;;;;;35.03;11.90;;;12.90;97.50;;;;;;7401662;19;20588;-86
2023/02/04 02:23:06;;;;;;;25.98;11.73;;;12.90;97.50;;;;;;7401129;19;20015;-86
2023/02/04 02:25:38;;;;;;;25.33;11.75;;;12.80;97.70;;;;;;7403545;19;20014;-86
2023/02/04 02:28:11;;;;;;;27.45;12.23;;;12.90;97.70;;;;;;7403301;19;20018;-86
2023/02/04 02:30:40;;;;;;;29.05;12.27;;;12.90;97.70;;;;;;7403394;19;19996;-86
2023/02/04 02:33:09;;;;;;;32.58;13.05;;;12.80;97.70;;;;;;7419359;19;20046;-86
2023/02/04 02:35:38;;;;;;;31.00;14.13;;;12.70;98.00;;;;;;7383458;19;20014;-85
2023/02/04 02:38:07;;;;;;;32.63;14.05;;;12.60;98.30;;;;;;7387197;19;20035;-87
2023/02/04 02:40:38;;;;;;;41.88;14.27;;;12.60;98.30;;;;;;7386872;19;20022;-84
2023/02/04 02:43:08;;;;;;;41.15;14.32;;;12.70;98.30;;;;;;7384810;19;20446;-84
2023/02/04 02:45:37;;;;;;;39.28;14.23;;;12.70;98.20;;;;;;7383084;19;20387;-85
2023/02/04 02:48:06;;;;;;;35.00;14.52;;;12.80;98.20;;;;;;7408707;19;20019;-86
2023/02/04 02:50:36;;;;;;;36.75;13.98;;;12.80;98.10;;;;;;7394257;19;21105;-86
2023/02/04 02:53:05;;;;;;;32.13;14.63;;;12.80;98.10;;;;;;7392899;19;20027;-85
2023/02/04 02:55:34;;;;;;;37.85;15.63;;;12.90;98.10;;;;;;7394420;19;20015;-85
2023/02/04 02:58:07;;;;;;;29.63;13.88;;;12.90;98.00;;;;;;7402073;19;20034;-85
2023/02/04 03:00:36;;;;;;;39.63;15.43;;;12.90;97.90;;;;;;7400136;19;20010;-86
2023/02/04 03:03:09;;;;;;;37.60;15.30;;;12.90;97.90;;;;;;7423869;19;20017;-86
2023/02/04 03:05:42;;;;;;;38.70;14.48;;;13.00;98.00;;;;;;7401784;19;20384;-87
2023/02/04 03:08:12;;;;;;;39.78;14.75;;;13.00;97.90;;;;;;7401519;19;20019;-86
2023/02/04 03:10:41;;;;;;;38.88;14.13;;;13.00;97.80;;;;;;7402353;19;20017;-87
2023/02/04 03:13:13;;;;;;;27.50;13.52;;;13.00;97.80;;;;;;7393130;19;20022;-87
2023/02/04 03:15:43;;;;;;;39.50;14.18;;;13.00;97.80;;;;;;7384197;19;20018;-87
2023/02/04 03:18:12;;;;;;;31.35;14.15;;;12.90;97.90;;;;;;7411791;19;20050;-88
2023/02/04 03:20:42;;;;;;;39.47;14.57;;;13.00;97.90;;;;;;7383222;19;20105;-87
2023/02/04 03:23:11;;;;;;;35.45;14.45;;;13.00;97.90;;;;;;7387726;19;20018;-88
2023/02/04 03:25:41;;;;;;;36.20;14.45;;;13.00;97.80;;;;;;7391305;19;20482;-87
2023/02/04 03:28:12;;;;;;;47.80;15.30;;;13.10;97.80;;;;;;7381614;19;20070;-88
2023/02/04 03:30:40;;;;;;;;;;;13.10;97.80;;;;;;7382796;19;20031;-86
2023/02/04 03:33:09;;;;;;;30.35;12.88;;;13.10;97.80;;;;;;7402148;19;19955;-86
2023/02/04 03:35:38;;;;;;;30.55;12.88;;;13.10;97.60;;;;;;7378361;19;20078;-86
2023/02/04 03:38:06;;;;;;;34.72;14.32;;;13.00;97.70;;;;;;7378648;19;20129;-86
2023/02/04 03:40:35;;;;;;;40.55;14.20;;;13.00;97.80;;;;;;7374606;19;20453;-86
2023/02/04 03:43:04;;;;;;;30.98;13.60;;;12.90;97.80;;;;;;7374579;19;20110;-86
2023/02/04 03:45:35;;;;;;;37.03;14.80;;;13.00;97.90;;;;;;7373203;19;20025;-86
2023/02/04 03:48:04;;;;;;;41.80;15.35;;;13.00;97.80;;;;;;7394501;19;20078;-87
2023/02/04 03:50:32;;;;;;;39.63;15.15;;;13.00;97.80;;;;;;7376678;19;20055;-87
2023/02/04 03:53:01;;;;;;;36.08;15.30;;;13.00;97.90;;;;;;7385762;19;20023;-87
2023/02/04 03:55:31;;;;;;;39.15;15.82;;;13.00;97.90;;;;;;7376753;19;20103;-87
2023/02/04 03:57:59;;;;;;;41.60;15.85;;;12.90;98.10;;;;;;7376951;19;20023;-86
2023/02/04 04:00:28;;;;;;;40.17;15.80;;;12.90;98.10;;;;;;7370072;19;20109;-86
2023/02/04 04:03:00;;;;;;;40.28;16.45;;;12.90;98.20;;;;;;7393056;19;20018;-86
2023/02/04 04:05:29;;;;;;;39.30;15.43;;;12.80;98.30;;;;;;7370877;19;20776;-86
2023/02/04 04:07:58;;;;;;;52.30;17.77;;;12.80;98.40;;;;;;7373551;19;20019;-87
2023/02/04 04:10:28;;;;;;;43.17;16.83;;;12.80;98.40;;;;;;7378079;19;20058;-87
2023/02/04 04:12:56;;;;;;;45.40;18.73;;;12.80;98.40;;;;;;7375262;19;20066;-86
2023/02/04 04:15:26;;;;;;;47.42;17.60;;;12.80;98.50;;;;;;7371036;19;20018;-84
2023/02/04 04:17:54;;;;;;;52.50;17.25;;;12.70;98.50;;;;;;7395137;19;20058;-85
2023/02/04 04:20:26;;;;;;;52.15;17.67;;;12.80;98.60;;;;;;7381623;19;20026;-84
2023/02/04 04:22:55;;;;;;;40.05;16.75;;;12.80;98.60;;;;;;7379250;19;20022;-85
2023/02/04 04:25:24;;;;;;;50.33;16.80;;;12.80;98.60;;;;;;7374185;19;20024;-84
2023/02/04 04:27:52;;;;;;;43.38;17.20;;;12.60;98.60;;;;;;7372784;19;20093;-85
2023/02/04 04:30:21;;;;;;;40.33;16.30;;;12.70;98.60;;;;;;7370468;19;20430;-84
2023/02/04 04:32:50;;;;;;;40.38;16.00;;;12.70;98.60;;;;;;7391331;19;20062;-84
2023/02/04 04:35:19;;;;;;;48.25;16.88;;;12.70;98.60;;;;;;7370113;19;20018;-85
2023/02/04 04:37:50;;;;;;;43.45;17.30;;;12.80;98.60;;;;;;7371141;19;20534;-85
2023/02/04 04:40:19;;;;;;;46.17;15.75;;;12.80;98.50;;;;;;7372838;19;20018;-85
2023/02/04 04:42:48;;;;;;;51.90;17.00;;;12.80;98.50;;;;;;7372124;19;20022;-85
2023/02/04 04:45:17;;;;;;;46.20;16.77;;;12.80;98.50;;;;;;7395132;19;20078;-85
2023/02/04 04:47:45;;;;;;;46.65;17.08;;;12.80;98.40;;;;;;7379244;19;20105;-85
2023/02/04 04:50:14;;;;;;;48.17;16.02;;;12.80;98.40;;;;;;7370890;19;20719;-85
2023/02/04 04:52:43;;;;;;;32.80;15.55;;;12.80;98.50;;;;;;7374034;19;20440;-86
2023/02/04 04:55:15;;;;;;;47.25;15.98;;;12.80;98.50;;;;;;7376769;19;20062;-86
2023/02/04 04:57:43;;;;;;;41.55;15.02;;;12.80;98.50;;;;;;7378718;19;21628;-87
2023/02/04 05:00:18;;;;;;;37.47;16.90;;;12.80;98.40;;;;;;7403265;19;20039;-86
2023/02/04 05:02:47;;;;;;;42.90;15.57;;;12.80;98.50;;;;;;7384628;19;20014;-86
2023/02/04 05:05:16;;;;;;;38.08;15.93;;;12.80;98.50;;;;;;7381205;19;20066;-86
2023/02/04 05:07:45;;;;;;;47.28;17.40;;;12.70;98.70;;;;;;7387143;19;20018;-86
2023/02/04 05:10:17;;;;;;;49.45;16.38;;;12.70;98.70;;;;;;7390138;19;20747;-86
2023/02/04 05:12:45;;;;;;;34.65;16.13;;;12.70;98.60;;;;;;7395286;19;20031;-87
2023/02/04 05:15:14;;;;;;;53.33;16.38;;;12.80;98.50;;;;;;7411702;19;20035;-85
2023/02/04 05:17:43;;;;;;;37.33;15.82;;;12.80;98.50;;;;;;7378090;19;20022;-85
2023/02/04 05:20:12;;;;;;;45.55;16.20;;;12.70;98.50;;;;;;7381503;19;20062;-85
2023/02/04 05:22:41;;;;;;;40.03;16.35;;;12.80;98.50;;;;;;7382691;19;20089;-85
2023/02/04 05:25:10;;;;;;;33.97;14.95;;;12.80;98.50;;;;;;7381374;19;20105;-85
2023/02/04 05:27:41;;;;;;;46.65;15.45;;;12.90;98.40;;;;;;7384578;19;20019;-86
2023/02/04 05:30:12;;;;;;;35.88;15.57;;;12.90;98.20;;;;;;7403034;19;20088;-83
2023/02/04 05:32:41;;;;;;;46.42;15.77;;;12.90;98.20;;;;;;7371336;19;20078;-83
2023/02/04 05:35:10;;;;;;;36.10;14.90;;;12.90;98.10;;;;;;7375662;19;20021;-84
2023/02/04 05:37:39;;;;;;;44.63;14.43;;;12.90;98.10;;;;;;7374863;19;20482;-83
2023/02/04 05:40:09;;;;;;;34.05;13.85;;;12.90;98.10;;;;;;7383306;19;20062;-83
2023/02/04 05:42:37;;;;;;;37.20;14.70;;;13.00;98.00;;;;;;7377835;19;20661;-83
2023/02/04 05:45:10;;;;;;;36.42;14.65;;;12.90;98.00;;;;;;7395070;19;20025;-83
2023/02/04 05:47:39;;;;;;;37.70;15.95;;;12.90;98.00;;;;;;7374078;19;20019;-83
2023/02/04 05:50:09;;;;;;;42.10;15.57;;;13.00;98.00;;;;;;7372766;19;20673;-84
2023/02/04 05:52:39;;;;;;;52.83;14.70;;;13.00;97.90;;;;;;7375677;19;20015;-84
2023/02/04 05:55:09;;;;;;;41.15;15.05;;;13.00;97.90;;;;;;7373261;19;20014;-84
2023/02/04 05:57:38;;;;;;;45.53;15.30;;;13.00;97.80;;;;;;7374557;19;20649;-84
2023/02/04 06:00:12;;;;;;;39.65;14.60;;;13.00;97.90;;;;;;7399862;19;20080;-88
2023/02/04 06:02:41;;;;;;;40.20;16.40;;;13.00;98.00;;;;;;7380528;19;20066;-88
2023/02/04 06:05:10;;;;;;;30.33;13.98;;;13.00;98.00;;;;;;7384227;19;20018;-89
2023/02/04 06:07:39;;;;;;;39.45;14.35;;;13.00;97.90;;;;;;7383774;19;20085;-87
2023/02/04 06:10:08;;;;;;;40.53;14.50;;;13.10;97.90;;;;;;7381426;19;20014;-87
2023/02/04 06:12:37;;;;;;;42.58;15.32;;;13.00;97.70;;;;;;7378370;19;20054;-85
2023/02/04 06:15:09;;;;;;;48.13;14.95;;;13.00;97.60;;;;;;7395714;19;20018;-84
2023/02/04 06:17:38;;;;;;;51.10;15.02;;;13.10;97.60;;;;;;7373857;19;20035;-84
2023/02/04 06:20:08;;;;;;;36.53;13.52;;;13.10;97.60;;;;;;7377988;19;20153;-84
2023/02/04 06:22:37;;;;;;;48.95;14.52;;;13.00;97.50;;;;;;7381217;19;20066;-85
2023/02/04 06:25:05;;;;;;;36.67;14.25;;;13.00;97.90;;;;;;7376922;19;20102;-85
2023/02/04 06:27:34;;;;;;;33.60;13.40;;;13.00;97.50;;;;;;7376892;19;20030;-87
2023/02/04 06:30:03;;;;;;;37.58;13.85;;;13.00;97.50;;;;;;7397372;19;20118;-86
2023/02/04 06:32:34;;;;;;;36.08;13.30;;;13.10;97.50;;;;;;7383869;19;20132;-86
2023/02/04 06:35:03;;;;;;;33.33;13.27;;;13.00;97.40;;;;;;7380358;19;20058;-86
2023/02/04 06:37:31;;;;;;;32.83;13.10;;;13.10;97.30;;;;;;7379195;19;20492;-85
2023/02/04 06:40:00;;;;;;;27.73;12.68;;;13.10;97.30;;;;;;7374583;19;20063;-86
2023/02/04 06:42:29;;;;;;;35.92;12.77;;;13.10;97.20;;;;;;7375271;19;20423;-84
2023/02/04 06:44:57;;;;;;;33.65;12.43;;;13.10;97.20;;;;;;7395246;19;20035;-85
2023/02/04 06:47:26;;;;;;;34.60;12.82;;;13.10;97.20;;;;;;7371179;19;20062;-85
2023/02/04 06:49:57;;;;;;;32.33;13.13;;;13.10;97.20;;;;;;7374145;19;20018;-85
2023/02/04 06:52:26;;;;;;;30.30;12.02;;;13.10;97.10;;;;;;7374517;19;20030;-84
2023/02/04 06:54:55;;;;;;;44.83;13.70;;;13.20;97.10;;;;;;7375738;19;20156;-87
2023/02/04 06:57:23;;;;;;;28.35;13.00;;;13.20;97.00;;;;;;7374230;19;20093;-86
2023/02/04 06:59:52;;;;;;;33.97;12.85;;;13.20;97.00;;;;;;7400167;19;20029;-87
2023/02/04 07:02:21;;;;;;;39.13;13.48;;;13.20;96.90;;;;;;7388312;19;20466;-85
2023/02/04 07:04:49;;;;;;;28.52;12.65;;;13.20;96.90;;;;;;7378805;19;20094;-86
2023/02/04 07:07:21;;;;;;;34.78;12.75;;;13.20;96.90;;;;;;7378997;19;20030;-87
2023/02/04 07:09:49;;;;;;;34.28;13.35;;;13.10;96.80;;;;;;7380182;19;20031;-87
2023/02/04 07:12:18;;;;;;;31.98;12.65;;;13.10;96.80;;;;;;7397922;19;20055;-86
2023/02/04 07:14:47;;;;;;;31.52;13.23;;;13.10;97.00;;;;;;7375884;19;20022;-86
2023/02/04 07:17:15;;;;;;;37.15;13.40;;;13.10;96.90;;;;;;7373139;19;20618;-86
2023/02/04 07:19:44;;;;;;;34.13;12.48;;;13.10;97.00;;;;;;7372148;19;20106;-87
2023/02/04 07:22:13;;;;;;;35.47;12.52;;;13.10;97.00;;;;;;7375588;19;20125;-86
2023/02/04 07:24:44;;;;;;;32.90;12.82;;;13.10;97.00;;;;;;7377225;19;20090;-86
2023/02/04 07:27:13;;;;;;;47.10;14.13;;;13.10;97.00;;;;;;7403364;19;20031;-86
2023/02/04 07:29:41;;;;;;;32.15;12.95;;;13.20;96.90;;;;;;7378178;19;20497;-86
2023/02/04 07:32:10;;;;;;;32.38;12.98;;;13.10;96.80;;;;;;7368429;19;20018;-86
2023/02/04 07:34:39;;;;;;;36.20;12.55;;;13.10;96.80;;;;;;7372169;19;20101;-86
2023/02/04 07:37:07;;;;;;;32.53;12.15;;;13.10;96.80;;;;;;7370497;19;20017;-86
2023/02/04 07:39:36;;;;;;;43.35;13.70;;;13.00;96.80;;;;;;7369869;19;20121;-87
2023/02/04 07:42:08;;;;;;;41.17;12.23;;;13.00;96.90;;;;;;7394038;19;20054;-86
2023/02/04 07:44:36;;;;;;;;;;;13.00;97.00;;;;;;7372389;19;20035;-87
2023/02/04 07:47:05;;;;;;;29.83;12.13;;;13.10;97.10;;;;;;7371112;19;19926;-87
2023/02/04 07:49:33;;;;;;;35.28;12.50;;;13.10;96.90;;;;;;7375339;19;20506;-88
2023/02/04 07:52:02;;;;;;;33.20;12.05;;;13.10;97.00;;;;;;7372132;19;20027;-87
2023/02/04 07:54:31;;;;;;;37.03;12.55;;;13.10;97.10;;;;;;7380928;19;20026;-86
2023/02/04 07:56:59;;;;;;;35.25;12.48;;;13.10;97.00;;;;;;7393129;19;20026;-86
2023/02/04 07:59:31;;;;;;;33.40;13.75;;;13.10;97.00;;;;;;7368284;19;20658;-86
2023/02/04 08:02:00;;;;;;;32.67;14.32;;;13.10;97.00;;;;;;7368857;19;20093;-86
2023/02/04 08:04:29;;;;;;;39.45;13.30;;;13.20;96.90;;;;;;7372015;19;20017;-86
2023/02/04 08:06:58;;;;;;;34.13;14.43;;;13.20;96.90;;;;;;7375417;19;20382;-86
2023/02/04 08:09:27;;;;;;;39.22;14.70;;;13.20;96.90;;;;;;7373387;19;20022;-85
2023/02/04 08:11:56;;;;;;;35.83;14.85;;;13.30;96.90;;;;;;7395196;19;20458;-86
2023/02/04 08:14:24;;;;;;;31.60;13.32;;;13.30;96.80;;;;;;7370514;19;20015;-86
2023/02/04 08:16:56;;;;;;;32.80;13.05;;;13.30;96.80;;;;;;7373610;19;20021;-86
2023/02/04 08:19:25;;;;;;;36.25;14.18;;;13.20;96.80;;;;;;7381976;19;20046;-86
2023/02/04 08:21:53;;;;;;;39.75;13.45;;;13.20;96.80;;;;;;7389610;19;20028;-86
2023/02/04 08:24:22;;;;;;;34.38;14.20;;;13.30;96.90;;;;;;7385735;19;20015;-87
2023/02/04 08:26:51;;;;;;;38.42;13.88;;;13.20;96.90;;;;;;7402181;19;20104;-88
2023/02/04 08:29:19;;;;;;;35.42;14.18;;;13.30;96.90;;;;;;7382392;19;20032;-87
2023/02/04 08:31:48;;;;;;;35.03;13.93;;;13.30;96.90;;;;;;7376714;19;20624;-88
2023/02/04 08:34:19;;;;;;;44.83;15.85;;;13.30;96.90;;;;;;7370818;19;20304;-87
2023/02/04 08:36:48;;;;;;;36.55;14.02;;;13.20;96.90;;;;;;7371692;19;20021;-87
2023/02/04 08:39:17;;;;;;;33.25;13.88;;;13.20;97.10;;;;;;7395524;19;20086;-86
2023/02/04 08:41:46;;;;;;;31.08;13.55;;;13.30;97.10;;;;;;7371517;19;20102;-87
2023/02/04 08:44:15;;;;;;;38.88;13.73;;;13.30;97.40;;;;;;7373563;19;20020;-86
2023/02/04 08:46:43;;;;;;;31.80;13.23;;;13.30;97.10;;;;;;7374572;19;20018;-86
2023/02/04 08:49:12;;;;;;;32.78;13.82;;;13.30;97.10;;;;;;7380224;19;20022;-86
2023/02/04 08:51:43;;;;;;;27.30;13.15;;;13.40;97.00;;;;;;7368182;19;20023;-86
2023/02/04 08:54:12;;;;;;;43.75;14.18;;;13.30;96.90;;;;;;7389329;19;20031;-86
2023/02/04 08:56:41;;;;;;;34.33;13.70;;;13.40;97.00;;;;;;7370061;19;20521;-87
2023/02/04 08:59:09;;;;;;;32.45;13.80;;;13.40;97.00;;;;;;7371143;19;20082;-86
2023/02/04 09:01:38;;;;;;;28.48;13.32;;;13.40;96.90;;;;;;7369989;19;20021;-87
2023/02/04 09:04:07;;;;;;;37.22;13.35;;;13.40;96.90;;;;;;7370592;19;20024;-86
2023/02/04 09:06:35;;;;;;;37.65;13.45;;;13.40;97.00;;;;;;7372044;19;20085;-86
2023/02/04 09:09:07;;;;;;;37.67;13.70;;;13.40;97.00;;;;;;7393886;19;20037;-85
2023/02/04 09:11:35;;;;;;;33.25;13.50;;;13.40;96.90;;;;;;7372066;19;20055;-85
2023/02/04 09:14:04;;;;;;;38.60;13.02;;;13.40;96.90;;;;;;7374405;19;20419;-86
2023/02/04 09:16:33;;;;;;;33.40;12.95;;;13.40;96.90;;;;;;7379893;19;20967;-85
2023/02/04 09:19:02;;;;;;;29.98;12.45;;;13.40;96.90;;;;;;7371562;19;20101;-85
2023/02/04 09:21:31;;;;;;;32.08;12.15;;;13.40;96.80;;;;;;7369236;19;20134;-85
2023/02/04 09:24:00;;;;;;;39.28;13.30;;;13.40;96.80;;;;;;7395512;19;20055;-85
2023/02/04 09:26:31;;;;;;;31.35;13.40;;;13.50;96.80;;;;;;7374397;19;20035;-86
2023/02/04 09:28:59;;;;;;;;;;;13.40;96.70;;;;;;7372499;19;20081;-86
2023/02/04 09:31:28;;;;;;;31.40;12.23;;;13.50;96.70;;;;;;7370767;19;19942;-87
2023/02/04 09:33:57;;;;;;;30.00;12.80;;;13.50;96.70;;;;;;7372181;19;20093;-88
2023/02/04 09:36:29;;;;;;;34.38;12.68;;;13.50;96.70;;;;;;7376193;19;20022;-86
2023/02/04 09:38:58;;;;;;;33.28;13.40;;;13.50;96.80;;;;;;7396081;19;20014;-87
2023/02/04 09:41:27;;;;;;;40.05;14.15;;;13.50;96.90;;;;;;7377660;19;20106;-86
2023/02/04 09:43:58;;;;;;;27.35;12.52;;;13.60;97.10;;;;;;7389357;19;20018;-86
2023/02/04 09:46:29;;;;;;;29.27;11.07;;;13.50;97.10;;;;;;7379738;19;20365;-86
2023/02/04 09:48:58;;;;;;;33.73;12.23;;;13.60;97.10;;;;;;7378790;19;20390;-85
2023/02/04 09:51:29;;;;;;;31.00;13.95;;;13.70;97.10;;;;;;7380795;19;20022;-84
2023/02/04 09:54:03;;;;;;;;;;;13.60;97.10;;;;;;7408068;19;20098;-84
2023/02/04 09:56:33;;;;;;;28.27;12.32;;;13.70;97.20;;;;;;7381058;19;19922;-86
2023/02/04 09:59:06;;;;;;;27.63;12.88;;;13.70;97.40;;;;;;7378321;19;20015;-85
2023/02/04 10:01:35;;;;;;;38.83;13.73;;;13.60;97.00;;;;;;7375293;19;20618;-85
2023/02/04 10:04:04;;;;;;;36.67;14.10;;;13.70;97.20;;;;;;7381732;19;20078;-88
2023/02/04 10:06:33;;;;;;;28.77;14.35;;;13.70;97.20;;;;;;7384237;19;20098;-88
2023/02/04 10:09:02;;;;;;;33.80;14.88;;;13.70;97.10;;;;;;7410640;19;20015;-88
2023/02/04 10:11:40;;;;;;;33.85;13.73;;;13.70;97.20;;;;;;7397890;19;20377;-85
2023/02/04 10:14:15;;;;;;;31.23;13.68;;;13.70;97.20;;;;;;7388061;19;20081;-85
2023/02/04 10:16:45;;;;;;;25.30;10.65;;;13.70;97.10;;;;;;7404711;19;20063;-86
2023/02/04 10:19:16;;;;;;;22.08;8.82;;;13.70;97.10;;;;;;7390592;19;20030;-85
2023/02/04 10:21:46;;;;;;;30.30;9.68;;;13.70;97.10;;;;;;7382324;19;20031;-84
2023/02/04 10:24:18;;;;;;;22.90;9.30;;;13.70;97.60;;;;;;7405729;19;20054;-88
2023/02/04 10:29:30;;;;;;;18.70;7.20;;;13.70;97.40;;;;;;7339036;19;20019;-85
2023/02/04 10:32:01;;;;;;;12.73;7.18;;;13.70;97.70;;;;;;7385226;19;20023;-85
2023/02/04 10:34:36;;;;;;;12.68;6.65;;;13.60;97.80;;;;;;7380974;19;20018;-86
2023/02/04 10:37:16;;;;;;;14.27;5.93;;;13.60;98.00;;;;;;7377669;19;20104;-83
2023/02/04 10:39:44;;;;;;;17.95;7.00;;;13.60;98.10;;;;;;7375013;19;20542;-83
2023/02/04 10:42:23;;;;;;;15.48;6.90;;;13.70;98.10;;;;;;7393249;19;20113;-84
2023/02/04 10:44:55;;;;;;;16.48;7.53;;;13.60;98.40;;;;;;7373711;19;20310;-87
2023/02/04 10:47:26;;;;;;;19.05;8.45;;;13.60;98.70;;;;;;7375773;19;20493;-84
2023/02/04 10:49:56;;;;;;;21.60;8.52;;;13.60;98.50;;;;;;7378703;19;20014;-84
2023/02/04 10:52:31;;;;;;;16.70;8.70;;;13.60;98.50;;;;;;7377143;19;20098;-88
2023/02/04 10:55:00;;;;;;;17.00;8.70;;;13.60;98.80;;;;;;7314298;19;20038;-89
2023/02/04 10:57:30;;;;;;;18.23;8.82;;;13.70;98.80;;;;;;7377372;19;20584;-85
2023/02/04 11:00:04;;;;;;;22.27;9.88;;;13.60;98.90;;;;;;7399371;19;20089;-87
2023/02/04 11:05:15;;;;;;;16.23;9.43;;;13.50;99.20;;;;;;7386597;19;20059;-84
2023/02/04 11:07:44;;;;;;;17.10;8.27;;;13.50;99.30;;;;;;7392841;19;20018;-86
2023/02/04 11:10:16;;;;;;;23.52;8.98;;;13.40;99.30;;;;;;7378997;19;20541;-83
2023/02/04 11:12:46;;;;;;;15.90;8.93;;;13.30;99.40;;;;;;7381535;19;20011;-89
2023/02/04 11:15:43;;;;;;;19.35;8.32;;;13.10;99.80;;;;;;7405233;19;20039;-88
2023/02/04 11:20:41;;;;;;;13.77;8.27;;;13.20;99.90;;;;;;7382019;19;20014;-83
2023/02/04 11:23:18;;;;;;;17.10;9.18;;;13.20;99.90;;;;;;7385426;19;20043;-85
2023/02/04 11:25:47;;;;;;;16.80;8.13;;;13.30;99.90;;;;;;7391752;19;20034;-84
2023/02/04 11:28:17;;;;;;;13.88;7.65;;;13.30;99.80;;;;;;7392882;19;20007;-85
2023/02/04 11:30:48;;;;;;;14.10;8.50;;;13.10;99.90;;;;;;7394651;19;20010;-83
2023/02/04 11:33:25;;;;;;;13.77;7.75;;;13.30;99.90;;;;;;7398562;19;20018;-82
2023/02/04 11:36:04;;;;;;;19.40;9.65;;;13.30;99.90;;;;;;7374191;19;20036;-84
2023/02/04 11:38:34;;;;;;;17.15;8.85;;;13.30;99.90;;;;;;7371861;19;20037;-83
2023/02/04 11:41:02;;;;;;;22.77;9.80;;;13.40;99.90;;;;;;7367173;19;20018;-85
2023/02/04 11:43:36;;;;;;;14.43;8.35;;;13.50;99.90;;;;;;7365765;19;20026;-83
2023/02/04 11:46:16;;;;;;;13.80;7.70;;;13.50;99.90;;;;;;7363108;19;20022;-79
2023/02/04 11:48:46;;;;;;;14.95;8.18;;;13.40;99.90;;;;;;7367824;19;20066;-80
2023/02/04 11:51:17;;;;;;;15.85;6.95;;;13.50;99.80;;;;;;7390942;19;20048;-85
2023/02/04 11:53:46;;;;;;;11.45;6.88;;;13.50;99.80;;;;;;7373829;19;20102;-87
2023/02/04 11:56:19;;;;;;;14.75;7.65;;;13.60;99.70;;;;;;7377273;19;20057;-85
2023/02/04 11:58:48;;;;;;;12.10;7.15;;;13.60;99.60;;;;;;7378419;19;20018;-86
2023/02/04 12:01:24;;;;;;;11.07;6.60;;;13.70;99.70;;;;;;7378457;19;20834;-87
2023/02/04 12:03:58;;;;;;;11.13;6.10;;;13.70;99.60;;;;;;7372375;19;20082;-84
2023/02/04 12:06:30;;;;;;;11.35;6.97;;;13.80;99.50;;;;;;7372685;19;20091;-86
2023/02/04 12:09:07;;;;;;;9.18;6.47;;;13.80;99.40;;;;;;7401988;19;20857;-84
2023/02/04 12:11:36;;;;;;;14.30;7.20;;;13.70;99.20;;;;;;7388384;19;20038;-85
2023/02/04 12:14:11;;;;;;;12.50;7.30;;;13.70;99.10;;;;;;7378801;19;20018;-84
2023/02/04 12:16:46;;;;;;;13.82;8.15;;;13.60;99.30;;;;;;7375204;19;20106;-90
2023/02/04 12:19:16;;;;;;;14.52;7.57;;;13.60;99.30;;;;;;7378483;19;20022;-86
2023/02/04 12:21:45;;;;;;;14.93;8.18;;;13.70;99.30;;;;;;7378263;19;20082;-86
2023/02/04 12:24:16;;;;;;;13.35;8.20;;;13.80;99.10;;;;;;7396451;19;20014;-86
2023/02/04 12:26:45;;;;;;;14.95;7.20;;;13.60;99.10;;;;;;7370906;19;20078;-86
2023/02/04 12:29:14;;;;;;;12.93;7.95;;;13.60;99.20;;;;;;7372351;19;20031;-85
2023/02/04 12:31:45;;;;;;;10.63;6.93;;;13.40;99.10;;;;;;7371796;19;20011;-87
2023/02/04 12:34:16;;;;;;;12.95;7.18;;;13.40;99.10;;;;;;7367897;19;20113;-83
2023/02/04 12:36:44;;;;;;;10.75;5.40;;;13.20;99.10;;;;;;7369575;19;20346;-85
2023/02/04 12:39:13;;;;;;;6.32;4.63;;;13.10;98.80;;;;;;7392008;19;20098;-84
2023/02/04 12:41:42;;;;;;;8.63;5.10;;;13.20;98.80;;;;;;7371331;19;20019;-87
2023/02/04 12:44:10;;;;;;;7.45;4.68;;;13.30;98.60;;;;;;7380201;19;20022;-86
2023/02/04 12:46:39;;;;;;;10.43;4.75;;;13.00;98.30;;;;;;7386972;19;20026;-89
2023/02/04 12:49:10;;;;;;;7.60;4.32;;;13.10;98.40;;;;;;7399868;19;20016;-89
2023/02/04 12:51:44;;;;;;;11.00;5.22;;;13.00;97.80;;;;;;7385382;19;20017;-93
2023/02/04 12:54:12;;;;;;;11.30;5.28;;;13.10;98.10;;;;;;7411394;19;20018;-86